Overview Statistics Trail Chart Weather Telemetry Raw packets
 

This is the latest recevied weather packets stored in our database for station/object OK2KJT-11. If no packets are shown the sender has not sent any weather packets the latest 10 day(s).

<< 1 2 3 4 5 6 >>
Time Temp. Humidity Pressure Rain* Wind** Luminosity Snow
1788698873 17.78° C 43% 1027.1 hPa - - - -
1788698273 17.22° C 45% 1027.1 hPa - - - -
1788697673 16.67° C 47% 1027 hPa - - - -
1788697081 16.11° C 48% 1027.1 hPa - - - -
1788696474 16.11° C 48% 1027.1 hPa - - - -
1788695874 16.67° C 47% 1027.1 hPa - - - -
1788695274 16.67° C 48% 1027.2 hPa - - - -
1788694674 16.11° C 50% 1027.1 hPa - - - -
1788694075 15.56° C 50% 1027.2 hPa - - - -
1788693475 15.56° C 51% 1027.2 hPa - - - -
1788692875 15.56° C 50% 1027.3 hPa - - - -
1788692276 14.44° C 52% 1027.2 hPa - - - -
1788691683 15.56° C 52% 1027.2 hPa - - - -
1788691076 15.56° C 51% 1027.1 hPa - - - -
1788690476 15.56° C 55% 1027.2 hPa - - - -
1788689884 15° C 52% 1027 hPa - - - -
1788689277 16.67° C 50% 1027.1 hPa - - - -
1788688677 16.67° C 52% 1027 hPa - - - -
1788688077 15.56° C 56% 1027 hPa - - - -
1788687477 14.44° C 58% 1026.9 hPa - - - -
1788686878 15° C 57% 1026.9 hPa - - - -
1788686277 14.44° C 60% 1026.9 hPa - - - -
1788685677 15° C 56% 1026.8 hPa - - - -
1788685078 16.11° C 52% 1026.8 hPa - - - -
1788684478 14.44° C 58% 1026.8 hPa - - - -

* Rain since midnight (hover to see other rain measurements)
** Current wind speed in m/s (hover to see current wind gust speed)